Terminal Aerodrome Forecast
Issued by NWS

Home | Current Version | Previous Version | Text Only | Print | Product List | Glossary On
Versions: 1 2 3 4 5 6 7 8 9 10 11 12 13
000
FTUS45 KRIW 042132 AAA
TAFBPI
TAF AMD
KBPI 042132Z 0422/0518 19010G18KT P6SM FEW100
     FM050130 32006KT P6SM FEW100
     FM051100 VRB05KT P6SM SCT080 BKN110=

USA.gov is the U.S. government's official web portal to all federal, state and local government web resources and services.